Time;durP1;ratioP1;P1;durP2;ratioP2;P2;SDS_P1;SDS_P2;PMS_P1;PMS_P2;Temp;Humidity;BMP_temperature;BMP_pressure;BME280_temperature;BME280_humidity;BME280_pressure;Samples;Min_cycle;Max_cycle;Signal;HPM_P1;HPM_P2
2022/11/10 00:02:15;;;;;;;13.88;3.80;;;9.10;99.90;;;;;;5028635;28;20132;-66
2022/11/10 00:04:41;;;;;;;13.80;3.95;;;9.10;99.90;;;;;;5028959;28;23208;-66
2022/11/10 00:07:06;;;;;;;11.50;4.40;;;9.10;99.90;;;;;;5022414;28;20049;-66
2022/11/10 00:09:32;;;;;;;16.30;4.20;;;9.10;99.90;;;;;;5027964;28;20042;-65
2022/11/10 00:11:58;;;;;;;11.23;4.05;;;9.10;99.90;;;;;;5042261;28;20664;-66
2022/11/10 00:17:09;;;;;;;16.75;4.78;;;9.00;99.90;;;;;;5041617;28;20045;-65
2022/11/10 00:19:34;;;;;;;18.85;4.53;;;9.00;99.90;;;;;;5033743;28;20034;-65
2022/11/10 00:22:00;;;;;;;16.02;4.45;;;9.00;99.90;;;;;;5031105;28;20036;-66
2022/11/10 00:24:27;;;;;;;16.75;5.15;;;9.00;99.90;;;;;;5028685;28;20144;-65
2022/11/10 00:26:54;;;;;;;15.27;4.38;;;8.90;99.90;;;;;;5032258;28;20047;-66
2022/11/10 00:29:21;;;;;;;16.67;4.38;;;8.90;99.90;;;;;;5042469;28;20048;-66
2022/11/10 00:31:46;;;;;;;16.25;4.55;;;8.90;99.90;;;;;;5034128;28;20069;-65
2022/11/10 00:34:15;;;;;;;15.43;4.30;;;8.80;99.90;;;;;;5032430;28;20084;-65
2022/11/10 00:36:42;;;;;;;15.70;4.65;;;8.80;99.90;;;;;;5030788;28;20052;-66
2022/11/10 00:39:08;;;;;;;13.35;5.35;;;8.90;99.90;;;;;;5029429;28;20087;-65
2022/11/10 00:41:34;;;;;;;12.93;4.35;;;8.90;99.90;;;;;;5030278;28;20122;-65
2022/11/10 00:43:59;;;;;;;16.00;5.57;;;8.80;99.90;;;;;;5038012;28;20464;-66
2022/11/10 00:46:25;;;;;;;16.40;5.03;;;8.90;99.90;;;;;;5030642;28;20084;-65
2022/11/10 00:48:50;;;;;;;10.30;4.38;;;8.80;99.90;;;;;;5026751;28;20052;-65
2022/11/10 00:51:22;;;;;;;13.40;5.00;;;8.90;99.90;;;;;;5026186;28;20125;-66
2022/11/10 00:53:48;;;;;;;15.40;5.38;;;8.90;99.90;;;;;;5037445;28;20052;-65
2022/11/10 00:56:14;;;;;;;11.73;4.97;;;8.90;99.90;;;;;;5044021;28;20593;-66
2022/11/10 00:58:40;;;;;;;13.32;4.65;;;8.90;99.90;;;;;;5035656;28;20033;-65
2022/11/10 01:01:06;;;;;;;13.73;5.57;;;8.80;99.90;;;;;;5039167;28;20036;-65
2022/11/10 01:03:32;;;;;;;17.08;5.38;;;8.80;99.90;;;;;;5036574;28;20045;-65
2022/11/10 01:05:58;;;;;;;19.73;5.88;;;8.80;99.90;;;;;;5026867;28;20519;-65
2022/11/10 01:08:24;;;;;;;16.58;5.22;;;8.90;99.90;;;;;;5040030;28;20048;-65
2022/11/10 01:10:49;;;;;;;16.88;5.38;;;8.90;99.90;;;;;;5026690;28;20037;-66
2022/11/10 01:13:15;;;;;;;19.75;6.22;;;8.80;99.90;;;;;;5030845;28;20041;-65
2022/11/10 01:15:41;;;;;;;14.93;5.82;;;8.80;99.90;;;;;;5027818;28;20033;-65
2022/11/10 01:18:07;;;;;;;15.63;5.78;;;8.80;99.90;;;;;;5030917;28;20037;-65
2022/11/10 01:20:34;;;;;;;18.05;5.40;;;8.70;99.90;;;;;;5031270;28;20384;-66
2022/11/10 01:23:00;;;;;;;12.15;5.40;;;8.80;99.90;;;;;;5027323;28;20040;-65
2022/11/10 01:25:25;;;;;;;18.60;5.85;;;8.80;99.90;;;;;;5028413;28;20041;-65
2022/11/10 01:27:51;;;;;;;16.15;5.35;;;8.70;99.90;;;;;;5029620;28;20042;-65
2022/11/10 01:30:18;;;;;;;17.25;5.85;;;8.70;99.90;;;;;;5035772;28;20116;-65
2022/11/10 01:32:43;;;;;;;14.85;5.88;;;8.70;99.90;;;;;;5030947;28;20034;-66
2022/11/10 01:35:09;;;;;;;18.20;6.97;;;8.70;99.90;;;;;;5039558;28;20052;-65
2022/11/10 01:37:35;;;;;;;16.17;6.55;;;8.60;99.90;;;;;;5034546;28;20041;-65
2022/11/10 01:40:02;;;;;;;20.52;6.10;;;8.70;99.90;;;;;;5033854;28;20470;-65
2022/11/10 01:42:44;;;;;;;18.00;6.38;;;8.70;99.90;;;;;;5030871;28;20045;-65
2022/11/10 01:45:22;;;;;;;24.75;7.90;;;8.70;99.90;;;;;;5035827;28;20084;-65
2022/11/10 01:48:00;;;;;;;19.55;6.57;;;8.60;99.90;;;;;;5034013;28;20053;-65
2022/11/10 01:50:32;;;;;;;25.42;7.45;;;8.60;99.90;;;;;;5028917;28;20038;-66
2022/11/10 01:53:01;;;;;;;18.10;6.50;;;8.60;99.90;;;;;;5024834;28;20112;-65
2022/11/10 01:55:28;;;;;;;18.37;6.63;;;8.60;99.90;;;;;;5027830;28;20029;-65
2022/11/10 01:57:54;;;;;;;18.48;6.68;;;8.60;99.90;;;;;;5032334;28;20088;-66
2022/11/10 02:00:21;;;;;;;18.80;6.45;;;8.60;99.90;;;;;;5032093;28;20439;-64
2022/11/10 02:03:18;;;;;;;18.50;7.05;;;8.60;99.90;;;;;;5024851;28;20437;-65
2022/11/10 02:05:44;;;;;;;17.40;7.18;;;8.60;99.90;;;;;;5032909;28;20138;-66
2022/11/10 02:08:14;;;;;;;13.45;6.78;;;8.50;99.90;;;;;;5040079;28;20052;-65
2022/11/10 02:10:40;;;;;;;19.50;7.47;;;8.50;99.90;;;;;;5037992;28;20033;-64
2022/11/10 02:13:05;;;;;;;22.33;7.47;;;8.60;99.90;;;;;;5034984;28;20112;-65
2022/11/10 02:15:31;;;;;;;26.33;7.82;;;8.60;99.90;;;;;;5039497;28;20116;-65
2022/11/10 02:17:56;;;;;;;24.00;7.47;;;8.60;99.90;;;;;;5024759;28;20057;-65
2022/11/10 02:20:22;;;;;;;18.33;6.50;;;8.60;99.90;;;;;;5033259;28;20048;-65
2022/11/10 02:22:48;;;;;;;23.15;7.03;;;8.60;99.90;;;;;;5029266;28;20069;-65
2022/11/10 02:25:18;;;;;;;19.25;6.97;;;8.60;99.90;;;;;;5029149;28;21034;-65
2022/11/10 02:27:44;;;;;;;20.95;7.07;;;8.60;99.90;;;;;;5028234;28;20077;-66
2022/11/10 02:30:10;;;;;;;18.88;7.65;;;8.60;99.90;;;;;;5032653;28;20071;-66
2022/11/10 02:32:36;;;;;;;20.67;6.90;;;8.60;99.90;;;;;;5028960;28;20037;-65
2022/11/10 02:35:02;;;;;;;17.67;6.82;;;8.60;99.90;;;;;;5047019;28;20068;-65
2022/11/10 02:37:27;;;;;;;17.58;6.43;;;8.60;99.90;;;;;;5034456;28;20040;-66
2022/11/10 02:39:53;;;;;;;21.17;7.20;;;8.60;99.90;;;;;;5029017;28;20041;-64
2022/11/10 02:42:18;;;;;;;19.13;6.80;;;8.60;99.90;;;;;;5037706;28;20041;-65
2022/11/10 02:44:44;;;;;;;21.88;6.68;;;8.60;99.90;;;;;;5032301;28;20551;-64
2022/11/10 02:47:09;;;;;;;26.25;7.55;;;8.60;99.90;;;;;;5045356;28;20045;-65
2022/11/10 02:49:35;;;;;;;23.20;7.07;;;8.60;99.90;;;;;;5046703;28;20523;-66
2022/11/10 02:52:01;;;;;;;21.92;6.28;;;8.60;99.90;;;;;;5021489;28;20414;-65
2022/11/10 02:54:26;;;;;;;21.45;6.65;;;8.70;99.90;;;;;;5029857;28;20045;-65
2022/11/10 02:56:52;;;;;;;17.42;6.90;;;8.60;99.90;;;;;;5031787;28;20041;-65
2022/11/10 02:59:17;;;;;;;18.08;6.93;;;8.60;99.90;;;;;;5027610;28;20685;-65
2022/11/10 03:01:43;;;;;;;23.33;6.47;;;8.60;99.90;;;;;;5032906;28;20124;-64
2022/11/10 03:04:08;;;;;;;17.02;6.65;;;8.50;99.90;;;;;;5038677;28;20044;-65
2022/11/10 03:06:34;;;;;;;19.98;6.88;;;8.50;99.90;;;;;;5035806;28;20128;-66
2022/11/10 03:08:59;;;;;;;20.20;7.30;;;8.50;99.90;;;;;;5032232;28;20455;-65
2022/11/10 03:11:25;;;;;;;20.80;7.35;;;8.50;99.90;;;;;;5037083;28;20041;-66
2022/11/10 03:13:51;;;;;;;21.17;6.70;;;8.50;99.90;;;;;;5046819;28;20026;-64
2022/11/10 03:16:16;;;;;;;19.20;6.53;;;8.50;99.90;;;;;;5026285;28;20037;-66
2022/11/10 03:18:42;;;;;;;20.50;6.47;;;8.50;99.90;;;;;;5032737;28;20512;-66
2022/11/10 03:21:08;;;;;;;17.13;6.78;;;8.50;99.90;;;;;;5029968;28;20128;-66
2022/11/10 03:23:34;;;;;;;17.33;6.50;;;8.50;99.90;;;;;;5028136;28;20054;-65
2022/11/10 03:26:03;;;;;;;21.05;7.43;;;8.50;99.90;;;;;;5022809;28;20037;-65
2022/11/10 03:28:28;;;;;;;16.63;6.95;;;8.50;99.90;;;;;;5026500;28;20037;-65
2022/11/10 03:30:54;;;;;;;21.52;7.25;;;8.50;99.90;;;;;;5027295;28;20036;-65
2022/11/10 03:33:20;;;;;;;21.98;7.20;;;8.50;99.90;;;;;;5027760;28;20065;-65
2022/11/10 03:35:45;;;;;;;21.05;6.35;;;8.50;99.90;;;;;;5013357;28;20092;-65
2022/11/10 03:38:11;;;;;;;21.80;7.25;;;8.60;99.90;;;;;;5032377;28;20041;-65
2022/11/10 03:40:36;;;;;;;20.67;6.82;;;8.50;99.90;;;;;;5026474;28;20136;-66
2022/11/10 03:43:02;;;;;;;22.95;7.72;;;8.50;99.90;;;;;;5029103;28;20822;-66
2022/11/10 03:45:27;;;;;;;19.90;7.53;;;8.50;99.90;;;;;;5038767;28;20432;-65
2022/11/10 03:47:53;;;;;;;22.85;7.88;;;8.50;99.90;;;;;;5046851;28;20120;-65
2022/11/10 03:50:18;;;;;;;21.10;7.60;;;8.50;99.90;;;;;;5035435;28;20034;-66
2022/11/10 03:52:45;;;;;;;19.40;6.82;;;8.50;99.90;;;;;;5032699;28;20036;-65
2022/11/10 03:55:13;;;;;;;22.60;8.05;;;8.40;99.90;;;;;;5036540;28;20037;-65
2022/11/10 03:57:39;;;;;;;24.63;7.57;;;8.40;99.90;;;;;;5047310;28;20033;-65
2022/11/10 04:00:05;;;;;;;22.75;7.70;;;8.40;99.90;;;;;;5036524;28;20124;-65
2022/11/10 04:02:31;;;;;;;25.00;8.15;;;8.40;99.90;;;;;;5038073;28;20048;-64
2022/11/10 04:10:25;;;;;;;28.30;9.40;;;8.40;99.90;;;;;;5042935;28;20041;-65
2022/11/10 04:15:41;;;;;;;29.63;9.88;;;8.50;99.90;;;;;;5031671;28;20053;-65
2022/11/10 04:18:21;;;;;;;26.30;9.05;;;8.50;99.90;;;;;;5032183;28;20037;-66
2022/11/10 04:20:50;;;;;;;28.65;8.82;;;8.50;99.90;;;;;;5035964;28;20634;-65
2022/11/10 04:23:25;;;;;;;27.08;9.18;;;8.50;99.90;;;;;;5033081;28;20049;-65
2022/11/10 04:28:41;;;;;;;27.23;10.27;;;8.50;99.90;;;;;;5030743;28;20386;-65
2022/11/10 04:31:07;;;;;;;24.33;9.55;;;8.60;99.90;;;;;;5030009;28;20041;-66
2022/11/10 04:33:34;;;;;;;24.27;10.80;;;8.60;99.90;;;;;;5041715;28;20077;-64
2022/11/10 04:35:59;;;;;;;24.13;10.55;;;8.50;99.90;;;;;;5026515;28;20115;-65
2022/11/10 04:38:25;;;;;;;32.97;11.48;;;8.60;99.90;;;;;;5040123;28;20037;-65
2022/11/10 04:40:51;;;;;;;28.80;10.55;;;8.60;99.90;;;;;;5028258;28;20048;-65
2022/11/10 04:43:16;;;;;;;27.67;11.45;;;8.50;99.90;;;;;;5028425;28;20099;-65
2022/11/10 04:45:42;;;;;;;29.80;11.82;;;8.60;99.90;;;;;;5028660;28;20148;-65
2022/11/10 04:48:08;;;;;;;32.13;11.70;;;8.60;99.90;;;;;;5028908;28;20042;-64
2022/11/10 04:50:34;;;;;;;26.80;11.48;;;8.60;99.90;;;;;;5029249;28;20041;-65
2022/11/10 04:52:59;;;;;;;31.90;10.68;;;8.60;99.90;;;;;;5029767;28;20041;-65
2022/11/10 04:55:25;;;;;;;30.00;11.20;;;8.60;99.90;;;;;;5025466;28;20124;-65
2022/11/10 04:57:50;;;;;;;35.50;11.40;;;8.60;99.90;;;;;;5026776;28;20037;-65
2022/11/10 05:00:16;;;;;;;33.47;11.55;;;8.60;99.90;;;;;;5029971;28;20048;-65
2022/11/10 05:02:42;;;;;;;32.08;12.20;;;8.60;99.90;;;;;;5022999;28;20045;-65
2022/11/10 05:05:08;;;;;;;33.88;12.15;;;8.60;99.90;;;;;;5028464;28;20057;-64
2022/11/10 05:07:34;;;;;;;27.23;11.57;;;8.60;99.90;;;;;;5034485;28;20052;-65
2022/11/10 05:09:59;;;;;;;39.45;13.05;;;8.60;99.90;;;;;;5029682;28;20029;-65
2022/11/10 05:12:25;;;;;;;33.53;12.30;;;8.60;99.90;;;;;;5036515;28;20045;-65
2022/11/10 05:14:50;;;;;;;30.98;12.00;;;8.70;99.90;;;;;;5032391;28;20049;-65
2022/11/10 05:17:16;;;;;;;34.67;12.85;;;8.70;99.90;;;;;;5030222;28;20132;-64
2022/11/10 05:19:41;;;;;;;36.15;12.40;;;8.70;99.90;;;;;;5036696;28;20037;-64
2022/11/10 05:22:07;;;;;;;34.22;12.63;;;8.60;99.90;;;;;;5026623;28;20477;-65
2022/11/10 05:24:32;;;;;;;30.27;12.15;;;8.60;99.90;;;;;;5035298;28;20042;-65
2022/11/10 05:26:58;;;;;;;32.92;12.40;;;8.60;99.90;;;;;;5025105;28;20045;-67
2022/11/10 05:29:24;;;;;;;36.80;13.38;;;8.60;99.90;;;;;;5032951;28;20048;-65
2022/11/10 05:31:49;;;;;;;32.85;12.52;;;8.70;99.90;;;;;;5036339;28;20037;-65
2022/11/10 05:34:15;;;;;;;29.17;13.30;;;8.70;99.90;;;;;;5044388;28;20037;-65
2022/11/10 05:36:40;;;;;;;31.92;12.80;;;8.70;99.90;;;;;;5029465;28;20481;-66
2022/11/10 05:39:06;;;;;;;33.25;12.40;;;8.80;99.90;;;;;;5035789;28;20102;-66
2022/11/10 05:41:32;;;;;;;42.08;12.48;;;8.70;99.90;;;;;;5030147;28;20484;-64
2022/11/10 05:43:57;;;;;;;33.38;12.95;;;8.70;99.90;;;;;;5026779;28;20171;-66
2022/11/10 05:46:23;;;;;;;35.83;12.63;;;8.80;99.90;;;;;;5028918;28;20045;-65
2022/11/10 05:48:48;;;;;;;31.15;12.65;;;8.70;99.90;;;;;;5047161;28;20171;-66
2022/11/10 05:51:14;;;;;;;30.38;12.90;;;8.80;99.90;;;;;;5031583;28;20041;-65
2022/11/10 05:53:39;;;;;;;36.50;12.63;;;8.80;99.90;;;;;;5026584;28;20029;-65
2022/11/10 05:56:05;;;;;;;33.72;12.35;;;8.80;99.90;;;;;;5036206;28;20029;-65
2022/11/10 05:58:31;;;;;;;38.03;13.40;;;8.90;99.90;;;;;;5031826;28;20128;-64
2022/11/10 06:00:56;;;;;;;34.67;13.18;;;8.90;99.90;;;;;;5040615;28;20036;-65
2022/11/10 06:03:22;;;;;;;30.40;12.38;;;8.90;99.90;;;;;;5034688;28;21091;-65
2022/11/10 06:05:48;;;;;;;32.42;13.48;;;8.90;99.90;;;;;;5034885;28;20591;-65
2022/11/10 06:08:13;;;;;;;36.15;13.52;;;8.90;99.90;;;;;;5033075;28;20043;-65
2022/11/10 06:10:39;;;;;;;29.33;12.65;;;8.90;99.90;;;;;;5049513;28;20045;-65
2022/11/10 06:13:05;;;;;;;36.10;13.63;;;9.00;99.90;;;;;;5028698;28;20124;-66
2022/11/10 06:15:31;;;;;;;31.52;12.73;;;9.00;99.90;;;;;;5031281;28;20503;-65
2022/11/10 06:17:57;;;;;;;32.30;12.32;;;9.00;99.90;;;;;;5031924;28;20068;-65
2022/11/10 06:20:24;;;;;;;29.13;12.50;;;9.10;99.90;;;;;;5031913;28;20041;-65
2022/11/10 06:22:58;;;;;;;36.47;12.50;;;9.10;99.90;;;;;;5036011;28;20040;-65
2022/11/10 06:25:24;;;;;;;40.83;13.93;;;9.10;99.90;;;;;;5029368;28;20056;-65
2022/11/10 06:27:50;;;;;;;34.05;13.00;;;9.10;99.90;;;;;;5027298;28;20050;-65
2022/11/10 06:30:15;;;;;;;33.63;12.85;;;9.10;99.90;;;;;;5029645;28;20083;-64
2022/11/10 06:32:42;;;;;;;27.63;12.20;;;9.10;99.90;;;;;;5030805;28;20470;-65
2022/11/10 06:35:09;;;;;;;31.08;12.55;;;9.10;99.90;;;;;;5032625;28;20489;-65
2022/11/10 06:37:34;;;;;;;35.60;12.73;;;9.10;99.90;;;;;;5029630;28;20492;-65
2022/11/10 06:40:00;;;;;;;32.65;12.55;;;9.00;99.90;;;;;;5035026;28;20034;-65
2022/11/10 06:42:25;;;;;;;32.92;12.90;;;9.00;99.90;;;;;;5033681;28;20037;-63
2022/11/10 06:44:51;;;;;;;30.38;13.35;;;9.00;99.90;;;;;;5037444;28;20083;-63
2022/11/10 06:47:17;;;;;;;34.38;12.88;;;9.00;99.90;;;;;;5035272;28;20046;-63
2022/11/10 06:49:42;;;;;;;34.17;13.82;;;8.90;99.90;;;;;;5041079;28;20107;-63
2022/11/10 06:52:08;;;;;;;33.75;12.55;;;9.00;99.90;;;;;;5033555;28;20041;-64
2022/11/10 06:54:33;;;;;;;34.50;12.68;;;9.00;99.90;;;;;;5039378;28;20116;-63
2022/11/10 06:56:59;;;;;;;28.55;11.95;;;9.00;99.90;;;;;;5036989;28;20271;-66
2022/11/10 06:59:24;;;;;;;32.60;12.02;;;8.90;99.90;;;;;;5028942;28;20354;-66
2022/11/10 07:01:50;;;;;;;39.97;12.50;;;9.00;99.90;;;;;;5029715;28;20059;-66
2022/11/10 07:04:15;;;;;;;37.28;12.80;;;9.00;99.90;;;;;;5021679;28;20077;-63
2022/11/10 07:06:41;;;;;;;37.88;12.93;;;9.00;99.90;;;;;;5042556;28;20056;-63
2022/11/10 07:09:06;;;;;;;28.48;12.57;;;9.00;99.90;;;;;;5038107;28;20073;-63
2022/11/10 07:11:32;;;;;;;35.53;12.80;;;9.10;99.90;;;;;;5061949;28;20126;-64
2022/11/10 07:13:58;;;;;;;36.53;12.40;;;9.10;99.90;;;;;;5032586;28;20044;-64
2022/11/10 07:16:23;;;;;;;36.97;12.32;;;9.20;99.90;;;;;;5028784;28;20033;-62
2022/11/10 07:18:49;;;;;;;35.72;12.15;;;9.30;99.90;;;;;;5031458;28;20041;-64
2022/11/10 07:21:14;;;;;;;26.38;11.90;;;9.30;99.90;;;;;;5036509;28;20089;-63
2022/11/10 07:23:40;;;;;;;30.50;12.05;;;9.40;99.90;;;;;;5040192;28;20037;-63
2022/11/10 07:26:06;;;;;;;30.30;11.85;;;9.40;99.90;;;;;;5040680;28;20083;-63
2022/11/10 07:28:32;;;;;;;33.03;11.88;;;9.50;99.90;;;;;;5044027;28;20037;-63
2022/11/10 07:31:00;;;;;;;30.92;12.23;;;9.50;99.90;;;;;;5033287;28;20757;-62
2022/11/10 07:33:26;;;;;;;33.10;11.50;;;9.60;99.90;;;;;;5047696;28;20037;-63
2022/11/10 07:35:55;;;;;;;30.40;11.00;;;9.60;99.90;;;;;;5037921;28;20029;-62
2022/11/10 07:38:20;;;;;;;28.55;11.77;;;9.70;99.90;;;;;;5049604;28;20044;-63
2022/11/10 07:40:50;;;;;;;25.88;10.32;;;9.70;99.90;;;;;;5033040;28;20037;-62
2022/11/10 07:43:16;;;;;;;25.70;11.40;;;9.80;99.90;;;;;;5039019;28;20076;-63
2022/11/10 07:45:41;;;;;;;36.67;12.77;;;9.80;99.90;;;;;;5031257;28;20091;-63
2022/11/10 07:48:08;;;;;;;32.30;10.63;;;9.80;99.90;;;;;;5049547;28;20047;-62
2022/11/10 07:50:34;;;;;;;26.27;11.80;;;9.80;99.90;;;;;;5049310;28;20033;-63
2022/11/10 07:53:14;;;;;;;30.65;10.50;;;9.80;99.90;;;;;;5041495;28;20037;-64
2022/11/10 07:55:44;;;;;;;26.17;10.95;;;9.80;99.90;;;;;;5013004;28;20037;-63
2022/11/10 07:58:11;;;;;;;21.05;10.30;;;9.70;99.90;;;;;;5030703;28;20067;-63
2022/11/10 08:00:37;;;;;;;35.17;11.85;;;9.80;99.90;;;;;;5032054;28;20108;-63
2022/11/10 08:03:18;;;;;;;28.10;10.48;;;9.80;99.90;;;;;;5041011;28;20627;-63
2022/11/10 08:05:44;;;;;;;32.28;11.02;;;9.80;99.90;;;;;;5033312;28;20050;-64
2022/11/10 08:08:10;;;;;;;27.75;11.00;;;9.80;99.90;;;;;;5030332;28;20033;-63
2022/11/10 08:10:38;;;;;;;26.65;11.55;;;9.90;99.90;;;;;;5031958;28;20060;-62
2022/11/10 08:13:05;;;;;;;25.85;11.00;;;9.80;99.90;;;;;;5029463;28;20041;-63
2022/11/10 08:15:33;;;;;;;28.63;11.13;;;9.90;99.90;;;;;;5031241;28;20045;-64
2022/11/10 08:18:20;;;;;;;31.50;11.68;;;9.90;99.90;;;;;;5030358;28;20404;-63
2022/11/10 08:20:46;;;;;;;28.48;11.43;;;9.90;99.90;;;;;;5030228;28;20046;-66
2022/11/10 08:23:12;;;;;;;29.70;12.15;;;9.90;99.90;;;;;;5040917;28;20040;-64
2022/11/10 08:25:38;;;;;;;30.98;13.27;;;9.90;99.90;;;;;;5048447;28;20036;-64
2022/11/10 08:28:12;;;;;;;29.85;12.30;;;9.90;99.90;;;;;;5032216;28;20033;-64
2022/11/10 08:30:41;;;;;;;29.85;13.02;;;9.80;99.90;;;;;;5030583;28;20131;-63
2022/11/10 08:33:08;;;;;;;29.00;12.75;;;9.80;99.90;;;;;;5030890;28;20045;-65
2022/11/10 08:35:36;;;;;;;31.85;12.63;;;9.80;99.90;;;;;;5031489;28;20030;-64
2022/11/10 08:38:13;;;;;;;31.30;13.02;;;9.80;99.90;;;;;;5031002;28;20400;-64
2022/11/10 08:40:40;;;;;;;32.65;13.25;;;10.00;99.90;;;;;;5031890;28;20122;-65
2022/11/10 08:43:06;;;;;;;25.63;13.25;;;10.00;99.90;;;;;;5029908;28;20037;-64
2022/11/10 08:45:34;;;;;;;27.73;13.18;;;10.20;99.90;;;;;;5031052;28;20527;-64
2022/11/10 08:48:05;;;;;;;36.78;13.52;;;10.30;99.90;;;;;;5032197;28;20055;-65
2022/11/10 08:50:30;;;;;;;29.75;12.27;;;10.40;99.90;;;;;;5035410;28;20079;-64
2022/11/10 08:52:59;;;;;;;31.92;12.55;;;10.50;99.90;;;;;;5043054;28;20033;-65
2022/11/10 08:55:24;;;;;;;32.22;12.35;;;10.50;99.90;;;;;;5039621;28;20098;-63
2022/11/10 08:57:50;;;;;;;29.08;11.85;;;10.70;99.90;;;;;;5042473;28;20040;-65
2022/11/10 09:00:16;;;;;;;24.70;12.20;;;10.80;99.90;;;;;;5034665;28;20045;-65
2022/11/10 09:02:42;;;;;;;29.83;12.20;;;10.90;99.90;;;;;;5039702;28;20052;-64
2022/11/10 09:05:08;;;;;;;30.17;12.07;;;11.00;99.90;;;;;;5029941;28;20429;-64
2022/11/10 09:07:45;;;;;;;32.28;12.20;;;11.00;99.90;;;;;;5024913;28;20110;-64
2022/11/10 09:10:11;;;;;;;23.83;11.57;;;11.00;99.90;;;;;;5035477;28;20124;-65
2022/11/10 09:12:37;;;;;;;26.48;11.68;;;11.00;99.90;;;;;;5045133;28;20034;-65
2022/11/10 09:15:04;;;;;;;28.00;10.43;;;11.00;99.90;;;;;;5029224;28;20159;-65
2022/11/10 09:17:30;;;;;;;25.95;11.13;;;11.00;99.90;;;;;;5029993;28;20533;-64
2022/11/10 09:19:56;;;;;;;27.73;10.82;;;11.10;99.90;;;;;;5030544;28;20412;-64
2022/11/10 09:22:21;;;;;;;29.25;10.02;;;11.10;99.90;;;;;;5038770;28;20087;-65
2022/11/10 09:24:47;;;;;;;22.90;9.52;;;11.10;99.90;;;;;;5025774;28;20038;-64
2022/11/10 09:27:12;;;;;;;24.27;10.00;;;11.20;99.90;;;;;;5033136;28;20039;-65
2022/11/10 09:29:38;;;;;;;25.23;9.23;;;11.30;99.90;;;;;;5045058;28;20397;-65
2022/11/10 09:32:04;;;;;;;29.35;10.05;;;11.40;99.90;;;;;;5044320;28;20037;-64
2022/11/10 09:34:29;;;;;;;26.63;9.98;;;11.40;99.90;;;;;;5031309;28;20037;-65
2022/11/10 09:36:55;;;;;;;31.23;10.85;;;11.50;99.90;;;;;;5030309;28;20093;-66
2022/11/10 09:39:20;;;;;;;25.38;8.82;;;11.60;99.90;;;;;;5027379;28;20120;-64
2022/11/10 09:41:46;;;;;;;23.23;8.77;;;11.70;99.90;;;;;;5028942;28;20068;-64
2022/11/10 09:44:11;;;;;;;21.13;8.45;;;11.70;99.90;;;;;;5029752;28;20053;-65
2022/11/10 09:46:42;;;;;;;21.33;8.63;;;11.80;99.90;;;;;;5040156;28;20032;-64
2022/11/10 09:49:13;;;;;;;18.13;8.00;;;11.80;99.90;;;;;;5039627;28;20045;-64
2022/11/10 09:51:41;;;;;;;24.58;7.80;;;11.90;99.90;;;;;;5029746;28;20517;-65
2022/11/10 09:54:44;;;;;;;21.13;8.73;;;11.90;99.90;;;;;;5030461;28;20128;-64
2022/11/10 09:57:12;;;;;;;20.35;7.97;;;11.90;99.90;;;;;;4991979;28;20042;-64
2022/11/10 09:59:39;;;;;;;25.65;7.47;;;12.00;99.90;;;;;;5028254;28;20132;-64
2022/11/10 10:02:25;;;;;;;26.23;7.78;;;12.00;99.90;;;;;;5033866;28;20033;-63
2022/11/10 10:05:30;;;;;;;20.83;7.82;;;12.00;99.90;;;;;;5029466;28;20053;-64
2022/11/10 10:08:10;;;;;;;24.95;8.10;;;12.10;99.90;;;;;;5029289;28;20056;-63
2022/11/10 10:10:45;;;;;;;21.23;6.97;;;12.30;99.90;;;;;;5029297;28;20037;-64
2022/11/10 10:13:10;;;;;;;24.05;8.15;;;12.30;99.90;;;;;;5028756;28;20045;-63
2022/11/10 10:15:57;;;;;;;28.45;8.68;;;12.40;99.90;;;;;;5030952;28;20386;-64
2022/11/10 10:18:38;;;;;;;22.55;7.78;;;12.50;99.90;;;;;;5036047;28;20049;-64
2022/11/10 10:21:10;;;;;;;20.98;7.80;;;12.60;99.90;;;;;;5043742;28;20104;-63
2022/11/10 10:23:43;;;;;;;20.00;8.52;;;12.80;99.90;;;;;;5040582;28;20038;-64
2022/11/10 10:26:14;;;;;;;27.45;8.25;;;12.70;99.90;;;;;;5034518;28;20056;-64
2022/11/10 10:28:44;;;;;;;18.17;7.18;;;12.70;99.90;;;;;;5029298;28;20505;-63
2022/11/10 10:31:20;;;;;;;26.38;7.72;;;12.80;99.90;;;;;;5028604;28;20033;-64
2022/11/10 10:33:47;;;;;;;20.67;7.15;;;12.80;99.90;;;;;;5034794;28;20029;-63
2022/11/10 10:36:24;;;;;;;21.30;7.07;;;12.80;99.90;;;;;;5035406;28;20503;-64
2022/11/10 10:38:53;;;;;;;17.58;6.50;;;12.80;99.90;;;;;;5033612;28;20375;-64
2022/11/10 10:41:24;;;;;;;17.40;5.95;;;12.90;99.90;;;;;;5034330;28;20051;-64
2022/11/10 10:43:53;;;;;;;25.67;5.72;;;12.90;99.90;;;;;;5044226;28;20033;-64
2022/11/10 10:46:23;;;;;;;23.08;6.70;;;13.00;99.90;;;;;;5046136;28;20041;-63
2022/11/10 10:49:32;;;;;;;20.15;5.90;;;13.00;99.90;;;;;;5041125;28;20124;-64
2022/11/10 10:52:14;;;;;;;19.58;6.18;;;13.00;99.90;;;;;;5036702;28;20076;-64
2022/11/10 10:54:40;;;;;;;17.92;5.50;;;13.00;99.90;;;;;;5034724;28;20112;-63
2022/11/10 10:57:24;;;;;;;20.15;5.47;;;13.10;99.90;;;;;;5038414;28;20120;-66
2022/11/10 10:59:51;;;;;;;17.35;4.97;;;13.20;99.90;;;;;;5038438;28;20091;-63
2022/11/10 11:02:25;;;;;;;18.55;5.03;;;13.30;99.90;;;;;;5037116;28;20052;-66
2022/11/10 11:05:10;;;;;;;18.00;4.38;;;13.30;99.90;;;;;;5035503;28;20049;-65
2022/11/10 11:07:36;;;;;;;13.23;4.68;;;13.30;99.90;;;;;;5038226;28;20064;-63
2022/11/10 11:10:02;;;;;;;12.60;4.40;;;13.30;99.90;;;;;;5038408;28;20406;-64
2022/11/10 11:12:32;;;;;;;14.68;4.60;;;13.40;99.90;;;;;;5031298;28;20037;-64
2022/11/10 11:15:10;;;;;;;14.60;4.30;;;13.40;99.90;;;;;;5032295;28;20036;-63
2022/11/10 11:17:36;;;;;;;14.20;4.72;;;13.40;99.90;;;;;;5031397;28;20091;-64
2022/11/10 11:20:02;;;;;;;14.02;4.05;;;13.40;99.90;;;;;;5041609;28;20120;-63
2022/11/10 11:22:45;;;;;;;19.02;4.75;;;13.50;99.90;;;;;;5041196;28;20119;-64
2022/11/10 11:25:23;;;;;;;18.38;4.88;;;13.60;99.90;;;;;;5045042;28;20064;-64
2022/11/10 11:27:52;;;;;;;18.65;4.95;;;13.50;99.90;;;;;;5036568;28;20151;-64
2022/11/10 11:30:22;;;;;;;13.35;4.10;;;13.60;99.90;;;;;;5045530;28;20124;-64
2022/11/10 11:33:08;;;;;;;19.83;3.80;;;13.60;99.90;;;;;;5047164;28;20029;-65
2022/11/10 11:35:57;;;;;;;17.55;3.72;;;13.60;99.90;;;;;;5040315;28;20080;-64
2022/11/10 11:38:33;;;;;;;13.77;2.88;;;13.60;99.90;;;;;;5037315;28;20033;-65
2022/11/10 11:41:23;;;;;;;13.35;3.00;;;13.70;99.90;;;;;;5036289;28;20124;-64
2022/11/10 11:44:05;;;;;;;13.55;3.13;;;13.70;99.90;;;;;;5037996;28;20041;-64
2022/11/10 11:47:16;;;;;;;15.85;3.22;;;13.80;99.90;;;;;;5050190;28;20045;-64
2022/11/10 11:50:27;;;;;;;13.60;3.08;;;13.80;99.90;;;;;;5039334;28;20048;-64
2022/11/10 11:52:52;;;;;;;16.40;3.22;;;13.90;99.90;;;;;;5038030;28;20460;-64
2022/11/10 11:55:41;;;;;;;12.10;3.13;;;13.90;99.90;;;;;;5065033;28;20079;-64
2022/11/10 11:58:22;;;;;;;14.85;3.17;;;13.90;99.90;;;;;;5046513;28;20045;-66
2022/11/10 12:01:06;;;;;;;11.80;2.85;;;13.80;99.90;;;;;;5044748;28;20069;-64
2022/11/10 12:03:56;;;;;;;13.27;3.55;;;13.90;99.90;;;;;;5054469;28;20033;-63
2022/11/10 12:06:49;;;;;;;15.55;3.53;;;14.00;99.90;;;;;;5051091;28;20060;-63
2022/11/10 12:09:43;;;;;;;17.90;3.55;;;14.00;99.90;;;;;;5044768;28;20171;-64
2022/11/10 12:12:36;;;;;;;13.85;3.80;;;14.10;99.90;;;;;;5036394;28;20036;-64
2022/11/10 12:15:20;;;;;;;12.88;3.33;;;14.10;99.90;;;;;;5038408;28;20037;-64
2022/11/10 12:17:59;;;;;;;13.82;2.95;;;14.10;99.90;;;;;;5036977;28;20029;-66
2022/11/10 12:20:49;;;;;;;13.27;2.67;;;14.20;99.90;;;;;;5039471;28;20037;-65
2022/11/10 12:23:52;;;;;;;15.13;3.22;;;14.20;99.90;;;;;;5032760;28;20049;-64
2022/11/10 12:26:47;;;;;;;11.25;2.88;;;14.10;99.90;;;;;;5049969;28;20083;-63
2022/11/10 12:29:42;;;;;;;19.52;2.95;;;14.10;99.90;;;;;;5035224;28;20084;-65
2022/11/10 12:32:16;;;;;;;12.75;2.83;;;14.00;99.90;;;;;;5050532;28;20049;-65
2022/11/10 12:34:57;;;;;;;14.20;3.08;;;14.00;99.90;;;;;;5051947;28;20037;-64
2022/11/10 12:37:41;;;;;;;16.65;2.92;;;14.00;99.90;;;;;;5049462;28;20072;-66
2022/11/10 12:40:16;;;;;;;15.93;2.95;;;14.00;99.90;;;;;;5043513;28;20045;-64
2022/11/10 12:42:45;;;;;;;16.58;3.30;;;14.00;99.90;;;;;;5039154;28;20145;-64
2022/11/10 12:45:22;;;;;;;16.00;3.30;;;14.00;99.90;;;;;;5050538;28;20045;-64
2022/11/10 12:47:48;;;;;;;18.58;2.88;;;14.00;99.90;;;;;;5046446;28;20083;-65
2022/11/10 12:50:23;;;;;;;12.85;3.03;;;14.00;99.90;;;;;;5030693;28;20029;-64
2022/11/10 12:52:56;;;;;;;10.57;2.35;;;14.10;99.90;;;;;;5031713;28;20041;-64
2022/11/10 12:55:33;;;;;;;14.60;3.00;;;14.20;99.90;;;;;;5034312;28;20041;-66
2022/11/10 12:58:00;;;;;;;11.95;2.22;;;14.20;99.90;;;;;;5042923;28;20079;-65
2022/11/10 13:00:34;;;;;;;13.90;3.25;;;14.20;99.90;;;;;;5049135;28;20397;-64
2022/11/10 13:02:59;;;;;;;10.63;2.35;;;14.20;99.90;;;;;;5035204;28;20041;-66
2022/11/10 13:05:32;;;;;;;9.85;2.45;;;14.10;99.90;;;;;;5050039;28;20057;-66
2022/11/10 13:08:26;;;;;;;14.55;3.33;;;14.10;99.90;;;;;;5047046;28;20358;-64